createdAt,value
2022-08-01T00:00:37.707Z,2.22
2022-08-01T00:03:05.071Z,2.22
2022-08-01T00:05:32.897Z,1.83
2022-08-01T00:08:00.173Z,2.28
2022-08-01T00:10:27.493Z,2.30
2022-08-01T00:12:54.638Z,2.60
2022-08-01T00:15:21.444Z,2.40
2022-08-01T00:17:48.286Z,2.72
2022-08-01T00:20:15.864Z,2.58
2022-08-01T00:22:42.857Z,2.63
2022-08-01T00:25:10.315Z,2.78
2022-08-01T00:27:37.792Z,2.88
2022-08-01T00:30:13.145Z,2.78
2022-08-01T00:32:45.340Z,2.28
2022-08-01T00:35:14.354Z,2.40
2022-08-01T00:37:41.296Z,2.55
2022-08-01T00:40:08.937Z,2.50
2022-08-01T00:42:39.080Z,2.75
2022-08-01T00:45:09.267Z,2.22
2022-08-01T00:47:36.032Z,3.03
2022-08-01T00:50:05.875Z,2.78
2022-08-01T00:52:34.672Z,2.95
2022-08-01T00:55:01.887Z,2.95
2022-08-01T00:58:02.858Z,3.13
2022-08-01T01:00:17.762Z,3.45
2022-08-01T01:02:45.155Z,4.32
2022-08-01T01:05:12.070Z,3.83
2022-08-01T01:07:58.792Z,3.75
2022-08-01T01:10:56.312Z,4.10
2022-08-01T01:14:02.491Z,3.95
2022-08-01T01:16:32.280Z,4.25
2022-08-01T01:19:05.278Z,3.83
2022-08-01T01:21:43.766Z,4.78
2022-08-01T01:24:40.957Z,4.38
2022-08-01T01:27:43.812Z,4.47
2022-08-01T01:30:11.314Z,3.78
2022-08-01T01:32:44.699Z,3.88
2022-08-01T01:35:18.508Z,3.95
2022-08-01T01:37:49.676Z,3.72
2022-08-01T01:40:18.916Z,3.53
2022-08-01T01:42:47.557Z,3.72
2022-08-01T01:45:16.877Z,4.07
2022-08-01T01:47:46.822Z,3.17
2022-08-01T01:50:14.632Z,4.03
2022-08-01T01:52:45.543Z,4.22
2022-08-01T01:55:15.165Z,4.15
2022-08-01T01:57:45.547Z,4.22
2022-08-01T02:00:15.036Z,3.92
2022-08-01T02:02:44.353Z,4.95
2022-08-01T02:05:14.176Z,3.95
2022-08-01T02:07:43.569Z,4.13
2022-08-01T02:10:14.516Z,4.03
2022-08-01T02:12:47.304Z,3.75
2022-08-01T02:15:16.637Z,4.00
2022-08-01T02:17:49.556Z,3.47
2022-08-01T02:20:17.633Z,3.80
2022-08-01T02:22:57.068Z,3.70
2022-08-01T02:25:28.232Z,3.67
2022-08-01T02:28:26.190Z,3.25
2022-08-01T02:31:03.944Z,4.03
2022-08-01T02:33:40.332Z,3.20
2022-08-01T02:36:30.192Z,3.40
2022-08-01T02:38:58.298Z,3.95
2022-08-01T02:41:28.530Z,3.92
2022-08-01T02:44:04.391Z,3.80
2022-08-01T02:46:39.473Z,3.90
2022-08-01T02:49:11.218Z,3.47
2022-08-01T02:51:43.554Z,3.55
2022-08-01T02:54:12.727Z,3.80
2022-08-01T02:56:51.118Z,3.13
2022-08-01T02:59:26.393Z,3.00
2022-08-01T03:01:58.687Z,2.95
2022-08-01T03:04:28.890Z,3.05
2022-08-01T03:06:59.761Z,3.20
2022-08-01T03:09:30.464Z,3.67
2022-08-01T03:12:05.517Z,3.15
2022-08-01T03:14:37.148Z,3.25
2022-08-01T03:17:06.913Z,2.90
2022-08-01T03:19:38.671Z,2.72
2022-08-01T03:22:10.584Z,3.10
2022-08-01T03:24:43.023Z,3.15
2022-08-01T03:27:15.223Z,2.50
2022-08-01T03:29:44.492Z,3.08
2022-08-01T03:32:14.768Z,3.58
2022-08-01T03:34:41.777Z,2.80
2022-08-01T03:37:36.440Z,2.92
2022-08-01T03:40:26.900Z,2.55
2022-08-01T03:43:03.305Z,2.92
2022-08-01T03:45:43.361Z,3.05
2022-08-01T03:48:27.767Z,3.78
2022-08-01T03:50:55.885Z,4.00
2022-08-01T03:53:31.060Z,4.10
2022-08-01T03:56:02.362Z,4.20
2022-08-01T03:58:34.114Z,4.38
2022-08-01T04:01:01.932Z,4.80
2022-08-01T04:03:29.618Z,4.75
2022-08-01T04:05:56.626Z,4.80
2022-08-01T04:08:23.377Z,4.90
2022-08-01T04:10:59.402Z,4.20
2022-08-01T04:13:26.249Z,4.55
2022-08-01T04:16:03.813Z,4.75
2022-08-01T04:18:30.549Z,4.82
2022-08-01T04:20:57.538Z,5.05
2022-08-01T04:23:32.325Z,4.47
2022-08-01T04:26:05.493Z,4.72
2022-08-01T04:28:40.622Z,5.45
2022-08-01T04:31:10.679Z,5.55
2022-08-01T04:33:45.433Z,4.53
2022-08-01T04:36:16.067Z,4.63
2022-08-01T04:38:51.555Z,4.22
2022-08-01T04:41:20.574Z,4.07
2022-08-01T04:43:47.863Z,4.47
2022-08-01T04:46:16.480Z,4.40
2022-08-01T04:48:46.061Z,4.40
2022-08-01T04:51:18.534Z,4.05
2022-08-01T04:53:46.860Z,4.07
2022-08-01T04:56:31.119Z,4.68
2022-08-01T04:59:20.151Z,3.45
2022-08-01T05:01:51.566Z,3.28
2022-08-01T05:04:19.799Z,3.10
2022-08-01T05:06:46.542Z,2.90
2022-08-01T05:09:13.281Z,2.83
2022-08-01T05:11:40.012Z,2.55
2022-08-01T05:14:07.522Z,2.38
2022-08-01T05:16:34.319Z,2.28
2022-08-01T05:19:01.090Z,1.98
2022-08-01T05:21:27.818Z,1.98
2022-08-01T05:23:54.531Z,1.90
2022-08-01T05:26:21.255Z,1.55
2022-08-01T05:28:49.027Z,1.42
2022-08-01T05:31:15.818Z,1.38
2022-08-01T05:33:42.591Z,1.42
2022-08-01T05:36:09.317Z,1.30
2022-08-01T05:38:36.190Z,1.10
2022-08-01T05:41:02.983Z,1.00
2022-08-01T05:43:29.723Z,0.90
2022-08-01T05:45:56.836Z,0.73
2022-08-01T05:48:23.656Z,0.80
2022-08-01T05:50:50.685Z,0.90
2022-08-01T05:53:17.836Z,0.90
2022-08-01T05:55:44.572Z,0.88
2022-08-01T05:58:12.195Z,1.00
2022-08-01T06:00:40.168Z,0.80
2022-08-01T06:03:07.047Z,0.60
2022-08-01T06:05:34.980Z,0.80
2022-08-01T06:08:01.756Z,0.80
2022-08-01T06:10:28.570Z,0.68
2022-08-01T06:12:55.409Z,0.70
2022-08-01T06:15:22.215Z,0.90
2022-08-01T06:17:49.082Z,0.80
2022-08-01T06:20:16.197Z,0.70
2022-08-01T06:22:42.947Z,1.00
2022-08-01T06:25:10.023Z,0.93
2022-08-01T06:27:37.041Z,0.82
2022-08-01T06:30:05.838Z,0.70
2022-08-01T06:32:32.751Z,0.70
2022-08-01T06:34:59.725Z,0.80
2022-08-01T06:37:32.400Z,0.70
2022-08-01T06:40:16.685Z,0.80
2022-08-01T06:42:46.588Z,0.70
2022-08-01T06:45:15.755Z,0.93
2022-08-01T06:47:50.634Z,0.90
2022-08-01T06:50:17.928Z,0.85
2022-08-01T06:52:44.742Z,1.00
2022-08-01T06:55:12.371Z,1.10
2022-08-01T06:57:52.073Z,1.20
2022-08-01T07:00:25.003Z,1.15
2022-08-01T07:02:55.260Z,1.20
2022-08-01T07:05:23.204Z,1.15
2022-08-01T07:07:50.837Z,1.05
2022-08-01T07:10:18.807Z,1.45
2022-08-01T07:12:45.658Z,1.17
2022-08-01T07:15:13.030Z,1.38
2022-08-01T07:17:42.064Z,1.52
2022-08-01T07:20:16.399Z,1.58
2022-08-01T07:22:43.740Z,1.48
2022-08-01T07:25:14.918Z,1.60
2022-08-01T07:27:41.692Z,1.52
2022-08-01T07:30:09.136Z,1.50
2022-08-01T07:32:36.051Z,1.73
2022-08-01T07:35:04.941Z,1.65
2022-08-01T07:37:47.861Z,1.88
2022-08-01T07:40:18.604Z,2.05
2022-08-01T07:42:46.000Z,2.65
2022-08-01T07:45:14.257Z,2.47
2022-08-01T07:47:41.102Z,1.70
2022-08-01T07:50:08.942Z,1.40
2022-08-01T07:52:35.769Z,1.58
2022-08-01T07:55:03.174Z,1.85
2022-08-01T07:57:29.945Z,1.63
2022-08-01T07:59:57.207Z,1.40
2022-08-01T08:02:24.136Z,1.73
2022-08-01T08:04:50.961Z,1.30
2022-08-01T08:07:17.817Z,1.35
2022-08-01T08:09:44.839Z,1.23
2022-08-01T08:12:18.270Z,1.60
2022-08-01T08:14:45.301Z,1.50
2022-08-01T08:17:12.155Z,2.08
2022-08-01T08:19:40.123Z,2.50
2022-08-01T08:22:09.107Z,1.48
2022-08-01T08:24:46.261Z,1.35
2022-08-01T08:27:14.111Z,1.48
2022-08-01T08:29:40.973Z,1.23
2022-08-01T08:32:09.015Z,1.52
2022-08-01T08:34:36.128Z,1.63
2022-08-01T08:37:03.018Z,1.50
2022-08-01T08:39:30.926Z,1.60
2022-08-01T08:42:11.590Z,1.27
2022-08-01T08:44:43.540Z,1.40
2022-08-01T08:47:19.034Z,1.20
2022-08-01T08:49:49.558Z,1.42
2022-08-01T08:52:19.622Z,1.30
2022-08-01T08:54:49.355Z,1.40
2022-08-01T08:57:18.573Z,1.15
2022-08-01T08:59:45.868Z,1.02
2022-08-01T09:02:15.341Z,2.10
2022-08-01T09:04:42.494Z,1.98
2022-08-01T09:07:09.749Z,1.52
2022-08-01T09:09:41.803Z,1.30
2022-08-01T09:12:10.090Z,1.45
2022-08-01T09:14:46.861Z,1.20
2022-08-01T09:17:16.175Z,1.38
2022-08-01T09:19:52.567Z,1.20
2022-08-01T09:22:26.313Z,1.13
2022-08-01T09:25:11.686Z,1.45
2022-08-01T09:27:44.392Z,1.23
2022-08-01T09:30:19.630Z,1.00
2022-08-01T09:33:17.963Z,0.90
2022-08-01T09:35:57.442Z,0.95
2022-08-01T09:38:47.797Z,0.93
2022-08-01T09:41:18.620Z,1.30
2022-08-01T09:43:51.541Z,1.35
2022-08-01T09:46:20.503Z,1.67
2022-08-01T09:49:07.528Z,1.10
2022-08-01T09:52:00.294Z,1.13
2022-08-01T09:54:34.814Z,0.90
2022-08-01T09:57:20.334Z,0.75
2022-08-01T09:59:59.008Z,0.80
2022-08-01T10:02:42.748Z,1.60
2022-08-01T10:05:19.009Z,0.85
2022-08-01T10:08:07.562Z,1.02
2022-08-01T10:10:35.177Z,0.90
2022-08-01T10:13:05.601Z,1.10
2022-08-01T10:15:37.124Z,1.10
2022-08-01T10:18:16.701Z,1.63
2022-08-01T10:20:56.460Z,1.38
2022-08-01T10:23:39.939Z,1.33
2022-08-01T10:26:10.609Z,1.05
2022-08-01T10:28:39.681Z,1.02
2022-08-01T10:31:12.539Z,0.90
2022-08-01T10:33:52.217Z,1.10
2022-08-01T10:36:25.381Z,1.00
2022-08-01T10:38:56.182Z,1.13
2022-08-01T10:41:25.020Z,1.00
2022-08-01T10:43:53.333Z,1.50
2022-08-01T10:46:22.050Z,0.93
2022-08-01T10:49:29.853Z,1.00
2022-08-01T10:51:57.539Z,0.77
2022-08-01T10:54:27.993Z,1.00
2022-08-01T10:56:57.399Z,0.93
2022-08-01T10:59:49.859Z,0.80
2022-08-01T11:02:41.628Z,1.20
2022-08-01T11:05:23.975Z,0.90
2022-08-01T11:07:56.201Z,1.02
2022-08-01T11:10:45.619Z,1.20
2022-08-01T11:13:14.368Z,0.65
2022-08-01T11:15:50.077Z,1.17
2022-08-01T11:18:33.841Z,0.82
2022-08-01T11:21:57.881Z,1.52
2022-08-01T11:23:57.782Z,1.00
2022-08-01T11:26:28.837Z,0.70
2022-08-01T11:29:21.467Z,1.10
2022-08-01T11:31:49.818Z,1.15
2022-08-01T11:34:16.707Z,1.00
2022-08-01T11:36:59.854Z,0.68
2022-08-01T11:39:29.624Z,0.60
2022-08-01T11:42:20.673Z,0.80
2022-08-01T11:44:52.280Z,0.85
2022-08-01T11:47:39.540Z,1.00
2022-08-01T11:50:07.298Z,0.98
2022-08-01T11:52:36.447Z,1.33
2022-08-01T11:55:03.145Z,0.75
2022-08-01T11:57:36.875Z,0.60
2022-08-01T12:00:18.066Z,0.60
2022-08-01T12:03:00.553Z,0.82
2022-08-01T12:05:31.343Z,0.93
2022-08-01T12:08:01.541Z,0.63
2022-08-01T12:10:47.145Z,0.70
2022-08-01T12:13:16.225Z,1.10
2022-08-01T12:15:43.158Z,0.60
2022-08-01T12:18:09.931Z,0.50
2022-08-01T12:20:55.695Z,0.77
2022-08-01T12:23:23.994Z,0.65
2022-08-01T12:25:54.529Z,0.55
2022-08-01T12:28:21.899Z,0.50
2022-08-01T12:30:50.483Z,0.65
2022-08-01T12:33:22.081Z,0.60
2022-08-01T12:35:51.882Z,0.50
2022-08-01T12:38:28.136Z,0.63
2022-08-01T12:40:55.888Z,0.43
2022-08-01T12:43:29.409Z,0.40
2022-08-01T12:46:00.920Z,0.60
2022-08-01T12:48:31.564Z,1.25
2022-08-01T12:51:03.434Z,0.70
2022-08-01T12:53:40.321Z,0.30
2022-08-01T12:56:09.563Z,0.70
2022-08-01T12:58:36.613Z,0.43
2022-08-01T13:01:14.646Z,0.50
2022-08-01T13:03:42.160Z,0.60
2022-08-01T13:06:17.561Z,0.70
2022-08-01T13:08:46.476Z,0.80
2022-08-01T13:11:19.657Z,0.60
2022-08-01T13:13:52.075Z,0.50
2022-08-01T13:16:27.786Z,0.45
2022-08-01T13:19:06.609Z,0.50
2022-08-01T13:21:52.861Z,0.50
2022-08-01T13:24:30.769Z,0.40
2022-08-01T13:27:04.796Z,0.50
2022-08-01T13:29:40.957Z,0.40
2022-08-01T13:32:29.782Z,0.68
2022-08-01T13:35:09.859Z,0.40
2022-08-01T13:37:57.550Z,0.40
2022-08-01T13:40:28.549Z,0.75
2022-08-01T13:43:01.005Z,0.50
2022-08-01T13:45:27.773Z,0.32
2022-08-01T13:48:04.085Z,0.40
2022-08-01T13:50:39.806Z,0.70
2022-08-01T13:53:08.944Z,0.40
2022-08-01T13:55:35.790Z,0.45
2022-08-01T13:58:03.754Z,0.40
2022-08-01T14:00:30.717Z,0.63
2022-08-01T14:02:57.556Z,0.22
2022-08-01T14:05:24.375Z,0.40
2022-08-01T14:07:51.196Z,0.60
2022-08-01T14:10:26.720Z,1.00
2022-08-01T14:12:53.540Z,0.65
2022-08-01T14:15:38.129Z,0.50
2022-08-01T14:18:10.591Z,0.50
2022-08-01T14:20:40.370Z,0.80
2022-08-01T14:23:08.889Z,0.50
2022-08-01T14:26:02.947Z,0.43
2022-08-01T14:28:28.755Z,0.57
2022-08-01T14:30:58.806Z,0.60
2022-08-01T14:33:25.900Z,0.52
2022-08-01T14:36:05.363Z,0.40
2022-08-01T14:38:41.675Z,0.43
2022-08-01T14:41:09.160Z,0.40
2022-08-01T14:43:35.904Z,0.60
2022-08-01T14:46:04.442Z,0.38
2022-08-01T14:48:32.129Z,0.50
2022-08-01T14:51:04.187Z,0.47
2022-08-01T14:53:35.636Z,0.50
2022-08-01T14:56:04.577Z,0.40
2022-08-01T14:58:31.441Z,0.77
2022-08-01T15:00:59.377Z,0.90
2022-08-01T15:03:26.830Z,0.40
2022-08-01T15:05:53.753Z,0.40
2022-08-01T15:08:20.486Z,0.50
2022-08-01T15:10:47.237Z,0.47
2022-08-01T15:13:13.999Z,0.32
2022-08-01T15:15:43.375Z,0.50
2022-08-01T15:18:10.233Z,0.50
2022-08-01T15:20:36.998Z,0.50
2022-08-01T15:23:06.427Z,0.30
2022-08-01T15:25:41.605Z,1.40
2022-08-01T15:28:10.938Z,0.60
2022-08-01T15:30:38.289Z,0.30
2022-08-01T15:33:05.675Z,0.50
2022-08-01T15:35:32.716Z,0.50
2022-08-01T15:37:59.529Z,0.47
2022-08-01T15:40:27.977Z,0.40
2022-08-01T15:42:54.821Z,0.35
2022-08-01T15:45:47.400Z,0.30
2022-08-01T15:48:09.148Z,0.50
2022-08-01T15:50:41.741Z,0.50
2022-08-01T15:53:08.606Z,0.40
2022-08-01T15:55:39.839Z,0.50
2022-08-01T15:58:08.043Z,0.40
2022-08-01T16:00:39.696Z,0.65
2022-08-01T16:03:10.064Z,0.30
2022-08-01T16:05:43.905Z,0.63
2022-08-01T16:08:14.473Z,0.50
2022-08-01T16:10:41.599Z,0.70
2022-08-01T16:13:09.350Z,0.38
2022-08-01T16:15:39.011Z,0.50
2022-08-01T16:18:10.191Z,0.55
2022-08-01T16:20:42.860Z,0.40
2022-08-01T16:23:11.405Z,0.52
2022-08-01T16:25:41.358Z,0.47
2022-08-01T16:28:12.159Z,0.68
2022-08-01T16:30:51.006Z,0.57
2022-08-01T16:33:41.387Z,0.30
2022-08-01T16:36:16.953Z,1.15
2022-08-01T16:38:46.331Z,0.50
2022-08-01T16:41:19.637Z,0.60
2022-08-01T16:43:53.690Z,0.43
2022-08-01T16:46:25.505Z,0.60
2022-08-01T16:48:53.758Z,0.80
2022-08-01T16:51:20.849Z,0.50
2022-08-01T16:53:47.652Z,0.50
2022-08-01T16:56:14.551Z,0.50
2022-08-01T16:58:44.340Z,1.10
2022-08-01T17:01:59.433Z,0.50
2022-08-01T17:04:01.751Z,0.47
2022-08-01T17:06:33.574Z,1.27
2022-08-01T17:09:00.464Z,0.80
2022-08-01T17:11:29.675Z,0.40
2022-08-01T17:13:56.480Z,0.70
2022-08-01T17:16:23.616Z,0.70
2022-08-01T17:18:50.507Z,0.50
2022-08-01T17:21:18.060Z,0.55
2022-08-01T17:23:44.876Z,0.52
2022-08-01T17:26:14.738Z,0.63
2022-08-01T17:28:44.363Z,0.40
2022-08-01T17:31:11.206Z,0.40
2022-08-01T17:33:44.575Z,0.90
2022-08-01T17:36:13.770Z,0.50
2022-08-01T17:38:40.678Z,0.50
2022-08-01T17:41:07.514Z,0.45
2022-08-01T17:43:39.790Z,0.50
2022-08-01T17:46:06.553Z,0.30
2022-08-01T17:48:33.364Z,0.40
2022-08-01T17:51:00.132Z,0.52
2022-08-01T17:53:28.055Z,0.52
2022-08-01T17:55:57.900Z,0.40
2022-08-01T17:58:50.221Z,0.50
2022-08-01T18:01:18.361Z,0.50
2022-08-01T18:03:46.177Z,0.50
2022-08-01T18:06:17.183Z,0.63
2022-08-01T18:08:47.096Z,0.50
2022-08-01T18:11:16.045Z,0.50
2022-08-01T18:13:43.320Z,0.68
2022-08-01T18:16:12.707Z,0.40
2022-08-01T18:18:42.132Z,0.60
2022-08-01T18:21:10.289Z,0.60
2022-08-01T18:23:37.225Z,0.50
2022-08-01T18:26:07.641Z,0.70
2022-08-01T18:28:41.971Z,0.50
2022-08-01T18:31:16.494Z,0.85
2022-08-01T18:33:50.838Z,0.68
2022-08-01T18:36:33.190Z,0.70
2022-08-01T18:39:07.783Z,0.55
2022-08-01T18:41:39.145Z,0.60
2022-08-01T18:44:07.794Z,0.63
2022-08-01T18:46:37.925Z,0.45
2022-08-01T18:49:07.640Z,0.73
2022-08-01T18:51:34.686Z,0.50
2022-08-01T18:54:04.080Z,0.73
2022-08-01T18:56:30.947Z,0.52
2022-08-01T18:58:57.695Z,0.90
2022-08-01T19:01:25.581Z,0.70
2022-08-01T19:03:53.569Z,0.80
2022-08-01T19:06:20.374Z,0.47
2022-08-01T19:08:55.685Z,0.70
2022-08-01T19:11:26.002Z,0.50
2022-08-01T19:13:52.843Z,0.50
2022-08-01T19:16:25.005Z,0.57
2022-08-01T19:18:51.921Z,0.70
2022-08-01T19:21:18.795Z,0.50
2022-08-01T19:24:04.020Z,0.60
2022-08-01T19:26:34.739Z,0.57
2022-08-01T19:29:12.980Z,0.60
2022-08-01T19:31:49.004Z,0.60
2022-08-01T19:34:24.792Z,0.50
2022-08-01T19:36:57.393Z,0.52
2022-08-01T19:39:27.757Z,0.60
2022-08-01T19:41:59.304Z,0.57
2022-08-01T19:44:28.753Z,0.80
2022-08-01T19:46:56.335Z,0.63
2022-08-01T19:49:24.100Z,0.70
2022-08-01T19:52:05.650Z,0.70
2022-08-01T19:54:38.405Z,0.80
2022-08-01T19:57:08.873Z,0.50
2022-08-01T19:59:37.151Z,0.80
2022-08-01T20:02:05.775Z,0.47
2022-08-01T20:04:34.210Z,0.60
2022-08-01T20:07:03.002Z,0.93
2022-08-01T20:09:32.812Z,1.00
2022-08-01T20:11:59.649Z,1.80
2022-08-01T20:14:29.808Z,1.90
2022-08-01T20:16:59.279Z,1.40
2022-08-01T20:19:26.849Z,1.20
2022-08-01T20:22:07.846Z,0.90
2022-08-01T20:24:50.242Z,0.82
2022-08-01T20:27:19.409Z,1.65
2022-08-01T20:29:49.544Z,1.10
2022-08-01T20:32:23.557Z,0.90
2022-08-01T20:34:55.163Z,0.73
2022-08-01T20:38:04.053Z,1.15
2022-08-01T20:40:17.026Z,0.80
2022-08-01T20:42:51.439Z,0.68
2022-08-01T20:45:18.840Z,0.80
2022-08-01T20:47:50.571Z,0.98
2022-08-01T20:50:52.727Z,0.80
2022-08-01T20:53:26.025Z,0.73
2022-08-01T20:56:16.891Z,0.77
2022-08-01T20:59:07.066Z,0.60
2022-08-01T21:01:58.255Z,0.47
2022-08-01T21:04:38.563Z,0.52
2022-08-01T21:07:27.566Z,0.80
2022-08-01T21:10:15.557Z,0.60
2022-08-01T21:13:03.330Z,0.60
2022-08-01T21:15:34.168Z,0.45
2022-08-01T21:18:02.543Z,0.60
2022-08-01T21:20:33.577Z,0.50
2022-08-01T21:23:50.644Z,0.65
2022-08-01T21:26:21.065Z,0.60
2022-08-01T21:28:54.673Z,0.50
2022-08-01T21:31:22.199Z,0.50
2022-08-01T21:34:02.235Z,0.70
2022-08-01T21:36:33.997Z,0.50
2022-08-01T21:39:05.814Z,0.60
2022-08-01T21:42:03.361Z,0.60
2022-08-01T21:44:29.092Z,1.27
2022-08-01T21:47:00.414Z,0.40
2022-08-01T21:49:27.746Z,1.02
2022-08-01T21:52:05.071Z,0.70
2022-08-01T21:55:10.638Z,1.02
2022-08-01T21:57:52.607Z,0.80
2022-08-01T22:00:26.376Z,1.45
2022-08-01T22:03:23.492Z,0.65
2022-08-01T22:05:53.876Z,0.60
2022-08-01T22:08:52.796Z,0.82
2022-08-01T22:11:28.490Z,0.60
2022-08-01T22:14:16.628Z,0.80
2022-08-01T22:16:45.897Z,0.63
2022-08-01T22:19:37.492Z,0.50
2022-08-01T22:22:44.916Z,0.63
2022-08-01T22:25:02.001Z,0.50
2022-08-01T22:28:06.520Z,0.55
2022-08-01T22:30:18.988Z,0.60
2022-08-01T22:33:08.053Z,0.50
2022-08-01T22:35:36.187Z,0.60
2022-08-01T22:38:07.055Z,0.60
2022-08-01T22:40:48.081Z,0.65
2022-08-01T22:43:29.343Z,0.90
2022-08-01T22:46:28.221Z,0.77
2022-08-01T22:49:27.234Z,0.80
2022-08-01T22:52:30.722Z,1.08
2022-08-01T22:55:08.400Z,0.60
2022-08-01T22:57:52.585Z,0.65
2022-08-01T23:00:19.899Z,0.80
2022-08-01T23:02:54.072Z,0.60
2022-08-01T23:05:24.918Z,0.90
2022-08-01T23:07:56.296Z,0.60
2022-08-01T23:10:26.657Z,0.70
2022-08-01T23:12:56.265Z,0.75
2022-08-01T23:15:24.031Z,0.70
2022-08-01T23:17:52.119Z,0.60
2022-08-01T23:20:21.409Z,0.60
2022-08-01T23:22:49.297Z,0.70
2022-08-01T23:25:18.256Z,0.90
2022-08-01T23:27:54.113Z,0.80
2022-08-01T23:30:37.111Z,0.75
2022-08-01T23:33:03.985Z,0.95
2022-08-01T23:35:31.281Z,0.80
2022-08-01T23:38:02.903Z,1.05
2022-08-01T23:40:32.373Z,0.88
2022-08-01T23:43:04.530Z,0.98
2022-08-01T23:45:36.103Z,0.70
2022-08-01T23:48:19.877Z,0.70
2022-08-01T23:50:46.791Z,0.60
2022-08-01T23:53:13.789Z,0.80
2022-08-01T23:55:40.744Z,0.55
2022-08-01T23:58:11.146Z,0.70
